Time;durP1;ratioP1;P1;durP2;ratioP2;P2;SDS_P1;SDS_P2;PMS_P1;PMS_P2;Temp;Humidity;BMP_temperature;BMP_pressure;BME280_temperature;BME280_humidity;BME280_pressure;Samples;Min_cycle;Max_cycle;Signal;HPM_P1;HPM_P2
2020/12/13 00:01:55;;;;;;;8.68;7.20;;;;;;;9.09;86.05;97856.59;5926180;23;20265;-87
2020/12/13 00:05:21;;;;;;;9.05;7.85;;;;;;;9.18;85.67;97853.19;5944444;23;20221;-87
2020/12/13 00:12:18;;;;;;;;;;;;;;;;;;;;;
2020/12/13 00:20:58;;;;;;;10.52;8.02;;;;;;;9.11;86.32;97883.28;6020617;23;20216;-84
2020/12/13 00:23:28;;;;;;;9.65;8.18;;;;;;;9.16;85.90;97883.78;6038621;23;20193;-86
2020/12/13 00:25:57;;;;;;;10.98;8.20;;;;;;;9.08;85.76;97883.53;5998255;23;20192;-85
2020/12/13 00:28:23;;;;;;;9.18;7.80;;;;;;;9.15;85.68;97887.44;6047223;23;20208;-84
2020/12/13 00:30:54;;;;;;;11.20;9.10;;;;;;;9.12;85.87;97890.38;6019160;23;20285;-85
2020/12/13 00:33:42;;;;;;;13.85;10.68;;;;;;;9.02;86.03;97895.63;6006648;23;20283;-86
2020/12/13 00:37:08;;;;;;;9.90;8.10;;;;;;;9.11;85.83;97894.00;5873462;24;20221;-83
2020/12/13 00:39:44;;;;;;;11.43;8.15;;;;;;;9.05;86.34;97903.41;5933470;23;20257;-81
2020/12/13 00:42:23;;;;;;;9.40;8.25;;;;;;;9.08;86.53;97908.53;5995003;23;20202;-82
2020/12/13 00:44:49;;;;;;;11.23;8.60;;;;;;;9.03;85.84;97902.69;5986843;23;20193;-82
2020/12/13 00:47:41;;;;;;;9.80;8.13;;;;;;;9.19;85.61;97903.16;5964600;23;20173;-82
2020/12/13 00:50:48;;;;;;;11.32;8.65;;;;;;;9.11;86.11;97910.09;5921890;23;20248;-83
2020/12/13 00:53:19;;;;;;;9.77;8.23;;;;;;;9.16;85.85;97897.19;5972573;23;20208;-84
2020/12/13 00:55:49;;;;;;;10.20;8.13;;;;;;;9.10;86.17;97903.88;5997774;23;20237;-85
2020/12/13 00:58:26;;;;;;;12.02;8.95;;;;;;;8.94;87.17;97897.19;5990912;23;20213;-85
2020/12/13 01:00:53;;;;;;;13.23;10.05;;;;;;;8.95;87.63;97909.59;5986405;23;20216;-85
2020/12/13 01:03:22;;;;;;;13.13;9.65;;;;;;;8.98;88.11;97904.00;5997622;23;20209;-85
2020/12/13 01:05:52;;;;;;;10.57;9.48;;;;;;;8.97;87.99;97904.97;5955012;23;20670;-85
2020/12/13 01:08:21;;;;;;;14.23;11.85;;;;;;;8.95;88.21;97901.56;5962234;23;20170;-85
2020/12/13 01:10:49;;;;;;;13.73;10.95;;;;;;;8.99;88.01;97913.75;5993015;23;20264;-85
2020/12/13 01:13:20;;;;;;;16.35;13.38;;;;;;;8.94;87.73;97915.94;6009489;23;20219;-83
2020/12/13 01:28:23;;;;;;;11.68;10.30;;;;;;;9.46;84.59;97937.66;5974296;23;20215;-89
2020/12/13 02:16:44;;;;;;;16.63;11.40;;;;;;;9.35;84.67;97984.13;6012084;23;20232;-92
2020/12/13 02:19:17;;;;;;;14.23;10.35;;;;;;;9.38;84.89;97994.59;6055909;23;20207;-89
2020/12/13 02:26:17;;;;;;;13.38;9.95;;;;;;;9.14;84.90;97998.34;6049777;23;20156;-89
2020/12/13 02:28:49;;;;;;;13.27;9.25;;;;;;;9.20;85.28;98016.66;6020668;23;20495;-89
2020/12/13 02:31:19;;;;;;;10.80;9.68;;;;;;;9.21;85.00;98010.31;5971664;23;20224;-89
2020/12/13 02:33:48;;;;;;;13.70;10.38;;;;;;;9.01;85.65;98011.00;6022722;23;20208;-89
2020/12/13 02:36:17;;;;;;;12.90;9.57;;;;;;;9.12;85.66;98013.72;5972523;23;20213;-89
2020/12/13 02:38:44;;;;;;;13.15;10.82;;;;;;;9.15;85.59;98022.38;6034121;23;20244;-88
2020/12/13 02:41:13;;;;;;;10.82;9.27;;;;;;;9.24;85.42;98013.59;5995669;23;20196;-89
2020/12/13 02:43:49;;;;;;;13.85;9.15;;;;;;;9.27;84.67;98017.88;6024819;23;20192;-88
2020/12/13 02:46:21;;;;;;;10.45;8.40;;;;;;;9.27;83.89;98017.88;5966900;23;20190;-90
2020/12/13 02:48:48;;;;;;;13.60;9.38;;;;;;;9.31;84.37;98024.72;6061733;23;20206;-87
2020/12/13 02:51:26;;;;;;;12.48;9.18;;;;;;;9.24;84.41;98016.28;6038556;23;20208;-90
2020/12/13 02:54:05;;;;;;;11.25;9.02;;;;;;;9.20;84.53;98025.53;5951706;23;20193;-95
2020/12/13 02:59:40;;;;;;;12.70;9.32;;;;;;;9.13;84.56;98031.50;6016753;23;21093;-92
2020/12/13 03:05:51;;;;;;;11.32;8.48;;;;;;;9.28;84.08;98051.78;6111578;23;20297;-91
2020/12/13 03:08:26;;;;;;;11.90;8.57;;;;;;;9.22;83.89;98045.06;6079677;23;20257;-91
2020/12/13 03:14:27;;;;;;;9.80;7.70;;;;;;;9.03;84.39;98057.31;6001923;23;20222;-92
2020/12/13 03:17:11;;;;;;;;;;;;;;;;;;;;;
2020/12/13 03:19:58;;;;;;;9.48;7.47;;;;;;;9.01;84.64;98057.41;6083985;23;20193;-90
2020/12/13 03:22:31;;;;;;;8.70;7.60;;;;;;;8.99;84.32;98066.59;6096899;23;20226;-89
2020/12/13 03:25:10;;;;;;;8.45;7.43;;;;;;;9.00;84.70;98070.97;6120815;23;20217;-90
2020/12/13 03:27:37;;;;;;;9.77;7.25;;;;;;;8.92;84.95;98076.91;6020211;23;20283;-88
2020/12/13 03:30:03;;;;;;;9.75;8.07;;;;;;;9.03;84.49;98078.75;5982510;23;20272;-89
2020/12/13 03:32:30;;;;;;;9.52;7.03;;;;;;;9.02;84.31;98083.28;6071405;23;21600;-90
2020/12/13 03:34:58;;;;;;;13.02;8.30;;;;;;;9.01;84.44;98096.81;6116735;23;20155;-90
2020/12/13 03:37:27;;;;;;;7.85;6.60;;;;;;;8.98;84.48;98095.19;6110084;23;20550;-90
2020/12/13 03:39:54;;;;;;;7.88;6.70;;;;;;;8.97;84.67;98106.03;6051997;23;20271;-90
2020/12/13 03:42:24;;;;;;;8.52;6.93;;;;;;;8.94;84.63;98100.91;6079347;23;20237;-89
2020/12/13 03:44:53;;;;;;;9.50;7.53;;;;;;;8.97;85.56;98103.34;6106537;23;20265;-89
2020/12/13 03:47:21;;;;;;;9.57;8.02;;;;;;;8.94;85.10;98103.59;6107230;23;20187;-89
2020/12/13 03:49:48;;;;;;;10.63;7.85;;;;;;;8.88;85.36;98107.56;6091995;23;20181;-90
2020/12/13 03:52:17;;;;;;;11.23;8.73;;;;;;;8.92;85.67;98102.84;6057232;23;20198;-89
2020/12/13 03:54:48;;;;;;;8.35;7.40;;;;;;;8.93;85.33;98108.09;6091156;23;20679;-90
2020/12/13 03:57:17;;;;;;;10.10;7.90;;;;;;;8.84;85.76;98108.78;6095496;23;20277;-90
2020/12/13 03:59:44;;;;;;;9.40;8.20;;;;;;;8.85;86.36;98107.81;6103831;23;20203;-91
2020/12/13 04:02:21;;;;;;;10.07;8.77;;;;;;;8.72;86.71;98106.16;6127449;23;20281;-91
2020/12/13 04:05:46;;;;;;;9.02;8.05;;;;;;;8.84;86.40;98110.59;6112069;23;20624;-89
2020/12/13 04:08:26;;;;;;;12.80;9.00;;;;;;;8.82;86.26;98118.75;5996651;23;20201;-90
2020/12/13 04:10:53;;;;;;;10.02;8.52;;;;;;;8.81;86.83;98108.16;5996681;23;20197;-90
2020/12/13 04:13:19;;;;;;;10.20;8.30;;;;;;;8.77;86.72;98112.91;6056104;23;20599;-90
2020/12/13 04:15:50;;;;;;;9.25;7.63;;;;;;;8.83;86.18;98120.50;6083658;23;20207;-90
2020/12/13 04:18:16;;;;;;;9.40;7.72;;;;;;;8.80;86.31;98117.19;6083845;22;20217;-89
2020/12/13 04:20:46;;;;;;;10.25;7.95;;;;;;;8.71;86.34;98112.50;6081103;23;20207;-90
2020/12/13 04:23:20;;;;;;;9.48;7.85;;;;;;;8.76;86.59;98113.88;6095344;23;20230;-89
2020/12/13 04:25:47;;;;;;;12.85;8.80;;;;;;;8.82;85.94;98120.59;6141542;23;20175;-90
2020/12/13 04:28:24;;;;;;;;;;;;;;;;;;;;;
2020/12/13 04:31:35;;;;;;;9.95;8.57;;;;;;;8.66;86.77;98128.03;6103635;23;20214;-91
2020/12/13 04:34:02;;;;;;;9.68;8.68;;;;;;;8.70;86.60;98132.22;6100095;23;20198;-90
2020/12/13 04:36:37;;;;;;;13.10;9.38;;;;;;;8.68;86.67;98131.50;5989540;23;20211;-90
2020/12/13 04:39:03;;;;;;;9.60;8.60;;;;;;;8.66;86.59;98139.63;6057588;23;20186;-91
2020/12/13 04:45:45;;;;;;;11.02;8.07;;;;;;;8.72;85.63;98151.72;5735884;24;20215;-90
2020/12/13 04:48:13;;;;;;;11.02;7.97;;;;;;;8.72;85.62;98149.91;5764831;24;20260;-91
2020/12/13 04:52:14;;;;;;;10.75;8.45;;;;;;;8.74;85.87;98156.00;5837512;23;20354;-90
2020/12/13 04:55:50;;;;;;;10.95;8.20;;;;;;;8.79;85.55;98155.66;5822011;24;20276;-91
2020/12/13 04:58:31;;;;;;;12.88;8.38;;;;;;;8.79;85.05;98169.03;5847003;24;20222;-91
2020/12/13 05:01:01;;;;;;;10.40;8.43;;;;;;;8.73;85.19;98167.69;5851736;23;20216;-90
2020/12/13 05:03:55;;;;;;;13.38;9.02;;;;;;;8.79;85.14;98177.09;5976846;23;20347;-90
2020/12/13 05:06:25;;;;;;;9.20;7.28;;;;;;;8.82;85.19;98175.03;5987525;23;20239;-90
2020/12/13 05:09:39;;;;;;;9.63;7.97;;;;;;;8.77;85.16;98173.69;5978853;23;20253;-89
2020/12/13 05:12:12;;;;;;;12.18;8.65;;;;;;;8.72;85.57;98165.97;5974868;23;20209;-90
2020/12/13 05:15:16;;;;;;;9.73;7.95;;;;;;;8.76;85.78;98175.53;5934961;24;20212;-90
2020/12/13 05:17:44;;;;;;;11.95;8.73;;;;;;;8.76;85.28;98180.88;5992039;23;20200;-90
2020/12/13 05:20:12;;;;;;;10.90;8.20;;;;;;;8.74;85.20;98176.59;6034707;23;20191;-90
2020/12/13 05:22:45;;;;;;;9.88;8.50;;;;;;;8.70;85.41;98191.19;6082078;23;20278;-90
2020/12/13 05:25:15;;;;;;;12.48;9.15;;;;;;;8.63;85.47;98192.59;6012544;23;20239;-90
2020/12/13 05:27:57;;;;;;;11.07;9.00;;;;;;;8.59;85.89;98193.75;6075214;23;20203;-90
2020/12/13 05:34:23;;;;;;;9.95;8.68;;;;;;;8.68;85.36;98206.53;6134737;23;20206;-90
2020/12/13 05:36:57;;;;;;;14.07;9.63;;;;;;;8.66;85.61;98209.31;6049075;23;20613;-90
2020/12/13 05:39:34;;;;;;;13.02;9.90;;;;;;;8.59;85.82;98210.72;6065694;23;20200;-91
2020/12/13 05:42:08;;;;;;;10.68;9.43;;;;;;;8.65;85.47;98222.81;6063302;23;20227;-91
2020/12/13 05:45:11;;;;;;;12.60;9.38;;;;;;;8.67;85.40;98220.88;6069953;23;20207;-91
2020/12/13 05:48:22;;;;;;;10.60;8.25;;;;;;;8.63;85.56;98219.38;6074814;23;20186;-90
2020/12/13 05:53:27;;;;;;;10.52;8.88;;;;;;;8.57;85.30;98231.41;6058755;23;20195;-91
2020/12/13 05:56:29;;;;;;;10.23;8.32;;;;;;;8.63;85.36;98235.47;6061203;23;20311;-90
2020/12/13 05:58:58;;;;;;;11.43;9.05;;;;;;;8.62;85.36;98239.94;6108649;23;20269;-90
2020/12/13 06:01:25;;;;;;;10.90;8.20;;;;;;;8.58;85.40;98242.97;5994242;23;20236;-89
2020/12/13 06:03:54;;;;;;;12.07;8.55;;;;;;;8.55;85.46;98240.53;6106912;23;20238;-90
2020/12/13 06:06:23;;;;;;;11.30;8.80;;;;;;;8.52;85.24;98248.75;6082898;23;20215;-90
2020/12/13 06:09:06;;;;;;;10.85;8.75;;;;;;;8.51;85.16;98255.09;6068986;23;20220;-90
2020/12/13 06:11:38;;;;;;;13.55;8.30;;;;;;;8.52;85.13;98257.66;6059591;23;20207;-86
2020/12/13 06:14:08;;;;;;;9.25;8.15;;;;;;;8.61;85.08;98258.84;6056815;23;20171;-85
2020/12/13 06:16:34;;;;;;;10.00;7.90;;;;;;;8.61;84.37;98259.69;6054382;23;20203;-85
2020/12/13 06:19:02;;;;;;;12.23;8.60;;;;;;;8.59;84.14;98260.75;6074018;23;20725;-84
2020/12/13 06:21:29;;;;;;;8.63;7.32;;;;;;;8.57;83.65;98273.41;6089461;23;20218;-84
2020/12/13 06:23:56;;;;;;;9.80;8.02;;;;;;;8.52;83.98;98276.44;6098342;23;20221;-84
2020/12/13 06:26:23;;;;;;;10.52;8.75;;;;;;;8.50;83.80;98272.97;6081349;23;20210;-84
2020/12/13 06:28:51;;;;;;;10.35;8.10;;;;;;;8.52;83.84;98275.56;6077958;23;20172;-84
2020/12/13 06:31:18;;;;;;;12.07;8.90;;;;;;;8.49;83.39;98281.16;6078431;23;20221;-84
2020/12/13 06:33:46;;;;;;;11.75;8.15;;;;;;;8.49;83.74;98286.50;6075505;23;20222;-85
2020/12/13 06:36:13;;;;;;;9.95;8.60;;;;;;;8.44;84.24;98288.63;6076827;23;20199;-85
2020/12/13 06:38:41;;;;;;;11.70;8.55;;;;;;;8.45;84.05;98285.88;6075617;23;20217;-85
2020/12/13 06:41:13;;;;;;;12.10;8.55;;;;;;;8.51;84.21;98285.44;6132330;23;20183;-83
2020/12/13 06:43:55;;;;;;;9.63;7.90;;;;;;;8.43;84.12;98289.63;6145762;23;20218;-85
2020/12/13 06:46:23;;;;;;;13.45;7.82;;;;;;;8.45;83.99;98290.34;6118460;23;20226;-85
2020/12/13 06:48:49;;;;;;;9.63;8.35;;;;;;;8.46;84.38;98300.09;6102564;23;20210;-85
2020/12/13 06:51:34;;;;;;;10.73;9.10;;;;;;;8.49;84.19;98298.06;6102235;23;20274;-85
2020/12/13 06:54:03;;;;;;;12.23;8.85;;;;;;;8.50;84.01;98304.28;6121418;23;20203;-85
2020/12/13 06:56:30;;;;;;;11.50;9.13;;;;;;;8.48;84.05;98300.88;6075714;23;20249;-85
2020/12/13 06:59:01;;;;;;;11.23;9.07;;;;;;;8.47;83.80;98302.69;6125678;23;20203;-85
2020/12/13 07:01:29;;;;;;;9.98;8.15;;;;;;;8.44;83.71;98310.06;6097830;23;20604;-85
2020/12/13 07:03:59;;;;;;;11.88;8.57;;;;;;;8.44;83.47;98315.44;6096185;23;20245;-85
2020/12/13 07:06:43;;;;;;;11.75;8.30;;;;;;;8.42;83.62;98314.69;6080562;23;20231;-85
2020/12/13 07:09:12;;;;;;;13.13;8.07;;;;;;;8.39;83.05;98322.91;6079171;23;20213;-85
2020/12/13 07:11:41;;;;;;;10.35;8.07;;;;;;;8.36;82.96;98326.66;6058617;23;20287;-85
2020/12/13 07:14:11;;;;;;;11.30;7.45;;;;;;;8.36;82.74;98325.81;6029595;23;20194;-85
2020/12/13 07:16:42;;;;;;;10.23;7.90;;;;;;;8.32;82.46;98329.66;6056943;23;20595;-86
2020/12/13 07:19:11;;;;;;;10.85;7.10;;;;;;;8.25;82.40;98331.06;6049579;23;20255;-86
2020/12/13 07:21:39;;;;;;;8.00;6.75;;;;;;;8.26;82.27;98332.78;6095813;23;20268;-85
2020/12/13 07:24:11;;;;;;;9.93;7.03;;;;;;;8.26;82.03;98338.13;6071557;23;20216;-85
2020/12/13 07:26:40;;;;;;;9.25;6.93;;;;;;;8.25;81.77;98341.78;6098026;23;20219;-84
2020/12/13 07:29:14;;;;;;;9.82;6.72;;;;;;;8.23;81.66;98343.72;6051776;23;20172;-84
2020/12/13 07:31:46;;;;;;;6.43;5.70;;;;;;;8.28;81.76;98349.59;6049335;23;20275;-84
2020/12/13 07:34:13;;;;;;;7.80;6.75;;;;;;;8.28;81.46;98352.25;6076192;23;20207;-85
2020/12/13 07:36:40;;;;;;;5.32;4.68;;;;;;;8.21;81.08;98351.84;6066432;23;20235;-85
2020/12/13 07:39:12;;;;;;;7.05;5.68;;;;;;;8.22;81.28;98358.91;6080033;23;20286;-85
2020/12/13 07:41:40;;;;;;;7.38;5.85;;;;;;;8.21;80.96;98364.34;6094750;23;20203;-85
2020/12/13 07:44:10;;;;;;;6.57;5.30;;;;;;;8.22;80.66;98353.53;6138734;23;20172;-84
2020/12/13 07:46:37;;;;;;;6.97;4.35;;;;;;;8.30;80.67;98358.38;6097420;23;20279;-85
2020/12/13 07:49:10;;;;;;;7.32;5.13;;;;;;;8.30;80.10;98356.53;6095495;23;20187;-84
2020/12/13 07:51:57;;;;;;;5.82;4.68;;;;;;;8.29;79.75;98360.19;6142569;23;20214;-85
2020/12/13 07:54:32;;;;;;;5.15;4.45;;;;;;;8.29;79.53;98368.22;6142879;23;20198;-85
2020/12/13 07:57:06;;;;;;;5.03;4.20;;;;;;;8.30;79.36;98371.78;6141077;23;20270;-85
2020/12/13 07:59:34;;;;;;;10.35;5.05;;;;;;;8.34;79.43;98368.78;6141910;23;20269;-85
2020/12/13 08:02:00;;;;;;;5.15;4.47;;;;;;;8.40;79.02;98378.19;6113532;23;20230;-86
2020/12/13 08:04:38;;;;;;;6.88;4.85;;;;;;;8.31;79.12;98373.50;6090590;23;20211;-85
2020/12/13 08:07:12;;;;;;;10.07;4.40;;;;;;;8.20;79.68;98376.03;6140500;23;20206;-85
2020/12/13 08:09:41;;;;;;;8.88;5.40;;;;;;;8.33;79.82;98380.47;6089219;23;20282;-85
2020/12/13 08:12:12;;;;;;;5.80;4.65;;;;;;;8.28;79.54;98379.03;6141343;23;20207;-85
2020/12/13 08:14:39;;;;;;;7.05;5.45;;;;;;;8.36;79.89;98379.41;6140357;23;20198;-86
2020/12/13 08:17:05;;;;;;;7.28;5.72;;;;;;;8.24;79.74;98385.59;6091813;23;20155;-85
2020/12/13 08:19:47;;;;;;;7.78;5.55;;;;;;;8.35;79.88;98391.09;6089330;23;20231;-85
2020/12/13 08:22:20;;;;;;;7.35;6.65;;;;;;;8.40;79.77;98399.63;6090221;23;20213;-85
2020/12/13 08:24:58;;;;;;;13.63;7.05;;;;;;;8.55;79.66;98398.59;6092994;23;20237;-85
2020/12/13 08:27:28;;;;;;;9.95;7.07;;;;;;;8.61;79.27;98399.03;6143074;23;20187;-85
2020/12/13 08:29:56;;;;;;;9.75;6.15;;;;;;;8.66;78.75;98406.72;6095133;23;20187;-85
2020/12/13 08:32:23;;;;;;;7.90;5.85;;;;;;;8.64;78.77;98416.72;6096446;23;20151;-86
2020/12/13 08:34:51;;;;;;;8.68;6.07;;;;;;;8.62;79.29;98413.28;6099592;23;20171;-85
2020/12/13 08:37:24;;;;;;;6.18;5.15;;;;;;;8.67;79.33;98412.00;6120267;23;20195;-86
2020/12/13 08:39:51;;;;;;;9.50;7.05;;;;;;;8.72;79.40;98412.53;6143532;23;20205;-85
2020/12/13 08:42:25;;;;;;;9.60;6.55;;;;;;;8.76;79.89;98421.22;6118880;23;20210;-85
2020/12/13 08:44:57;;;;;;;7.70;6.45;;;;;;;8.78;78.82;98428.19;6019506;23;20693;-85
2020/12/13 08:47:32;;;;;;;6.88;5.70;;;;;;;8.93;78.86;98426.28;6051346;23;20197;-85
2020/12/13 08:49:59;;;;;;;7.30;5.60;;;;;;;8.91;78.87;98425.50;6131169;23;20163;-85
2020/12/13 08:52:38;;;;;;;8.57;6.75;;;;;;;8.87;79.17;98427.53;6102843;23;20237;-85
2020/12/13 08:55:05;;;;;;;8.70;6.55;;;;;;;8.87;78.92;98429.38;6097653;23;20214;-85
2020/12/13 08:57:45;;;;;;;8.43;5.80;;;;;;;8.90;79.14;98434.53;6085003;23;20211;-84
2020/12/13 09:00:16;;;;;;;8.45;5.97;;;;;;;8.78;78.90;98438.91;6108741;23;20203;-84
2020/12/13 09:02:55;;;;;;;9.02;6.43;;;;;;;8.91;78.81;98445.16;6133268;23;20219;-84
2020/12/13 09:05:33;;;;;;;10.00;6.75;;;;;;;8.93;78.70;98453.09;6131574;23;20167;-85
2020/12/13 09:07:59;;;;;;;9.35;7.35;;;;;;;8.99;77.92;98450.81;6113270;23;20163;-85
2020/12/13 09:10:28;;;;;;;9.80;7.15;;;;;;;9.07;78.18;98447.63;6134134;23;20235;-84
2020/12/13 09:12:54;;;;;;;10.00;6.60;;;;;;;9.09;77.22;98462.63;6132544;23;20231;-86
2020/12/13 09:15:22;;;;;;;11.07;6.82;;;;;;;9.25;77.14;98454.38;6092558;23;20261;-85
2020/12/13 09:17:57;;;;;;;8.60;6.18;;;;;;;9.07;76.59;98467.22;6108883;23;20203;-85
2020/12/13 09:20:34;;;;;;;7.53;6.70;;;;;;;9.05;77.08;98468.28;6133444;23;20432;-85
2020/12/13 09:23:19;;;;;;;8.40;6.68;;;;;;;9.16;77.25;98471.97;6082982;23;20191;-85
2020/12/13 09:25:53;;;;;;;7.85;6.70;;;;;;;9.22;77.05;98482.25;6087904;23;20183;-85
2020/12/13 09:28:20;;;;;;;6.47;5.72;;;;;;;9.30;76.43;98487.06;6112142;23;20223;-84
2020/12/13 09:30:47;;;;;;;8.90;5.95;;;;;;;9.36;76.21;98481.25;6136493;23;20646;-84
2020/12/13 09:33:15;;;;;;;7.55;5.80;;;;;;;9.38;75.96;98490.94;6134545;23;20195;-85
2020/12/13 09:35:42;;;;;;;8.30;6.38;;;;;;;9.49;76.35;98496.41;6117829;23;20198;-84
2020/12/13 09:38:09;;;;;;;7.45;5.68;;;;;;;9.39;75.31;98499.84;6080784;23;20160;-85
2020/12/13 09:40:36;;;;;;;8.30;6.47;;;;;;;9.33;76.26;98502.97;6087595;23;20704;-86
2020/12/13 09:43:03;;;;;;;9.80;6.28;;;;;;;9.30;76.10;98504.03;6124411;23;20207;-86
2020/12/13 09:45:29;;;;;;;6.78;6.07;;;;;;;9.26;75.94;98507.88;6126433;23;20203;-86
2020/12/13 09:47:56;;;;;;;8.20;5.97;;;;;;;9.28;75.79;98516.72;6081765;23;20199;-86
2020/12/13 09:50:23;;;;;;;7.40;6.15;;;;;;;9.42;75.56;98523.75;6141755;23;20183;-84
2020/12/13 09:52:50;;;;;;;8.25;6.32;;;;;;;9.45;75.41;98520.88;6119888;23;20154;-85
2020/12/13 09:55:16;;;;;;;6.63;5.90;;;;;;;9.44;75.58;98519.16;6078707;23;20215;-84
2020/12/13 09:57:42;;;;;;;7.15;6.13;;;;;;;9.43;75.51;98522.78;6098124;23;20286;-84
2020/12/13 10:00:08;;;;;;;8.45;7.15;;;;;;;9.39;75.51;98529.38;6098220;23;20211;-85
2020/12/13 10:02:39;;;;;;;7.05;6.35;;;;;;;9.35;75.30;98526.03;6101017;23;20207;-85
2020/12/13 10:05:11;;;;;;;7.93;7.13;;;;;;;9.39;75.09;98526.69;6102909;23;20167;-84
2020/12/13 10:10:14;;;;;;;10.77;6.78;;;;;;;9.55;75.22;98522.81;6104237;23;20734;-84
2020/12/13 10:12:41;;;;;;;7.35;6.10;;;;;;;9.53;73.75;98523.88;6130213;23;20203;-84
2020/12/13 10:15:10;;;;;;;10.75;7.28;;;;;;;9.52;74.39;98523.00;6129469;23;20206;-85
2020/12/13 10:17:37;;;;;;;9.57;7.43;;;;;;;9.65;74.01;98523.00;6132108;23;20209;-85
2020/12/13 10:20:04;;;;;;;11.68;6.55;;;;;;;9.73;74.11;98528.69;6135503;23;20241;-85
2020/12/13 10:22:30;;;;;;;8.07;7.28;;;;;;;9.81;73.83;98526.28;6133145;23;20217;-85
2020/12/13 10:24:56;;;;;;;7.75;6.90;;;;;;;9.78;73.65;98521.16;6084262;23;20373;-86
2020/12/13 10:27:22;;;;;;;7.95;6.53;;;;;;;9.88;73.08;98519.50;6107068;23;20213;-86
2020/12/13 10:29:48;;;;;;;6.38;5.78;;;;;;;9.88;72.61;98525.75;6020843;23;20228;-84
2020/12/13 10:32:17;;;;;;;7.82;5.53;;;;;;;9.58;72.48;98519.88;6068886;23;20215;-86
2020/12/13 10:34:46;;;;;;;6.60;5.80;;;;;;;9.60;73.63;98517.09;6086750;23;20163;-86
2020/12/13 10:37:13;;;;;;;7.10;5.57;;;;;;;9.50;73.37;98521.44;6090102;23;20210;-86
2020/12/13 10:39:39;;;;;;;8.32;5.80;;;;;;;9.50;73.70;98521.44;6077514;23;20233;-86
2020/12/13 10:42:07;;;;;;;10.50;5.88;;;;;;;9.62;73.60;98516.03;6084339;23;20199;-86
2020/12/13 10:44:34;;;;;;;9.75;6.00;;;;;;;9.59;73.01;98510.03;6107273;23;20667;-85
2020/12/13 10:47:00;;;;;;;7.22;5.57;;;;;;;9.60;73.37;98512.59;6136222;23;20175;-86
2020/12/13 10:49:27;;;;;;;10.15;7.10;;;;;;;9.61;73.86;98513.44;6132286;23;20206;-85
2020/12/13 10:51:53;;;;;;;8.05;6.30;;;;;;;9.75;73.30;98507.94;6148535;23;20221;-83
2020/12/13 10:54:19;;;;;;;8.60;7.70;;;;;;;9.78;74.14;98513.09;6125147;23;20254;-83
2020/12/13 10:56:45;;;;;;;7.57;6.80;;;;;;;9.61;73.84;98511.63;6090858;23;20262;-84
2020/12/13 10:59:11;;;;;;;10.32;8.52;;;;;;;9.61;74.20;98508.06;6129902;23;20171;-83
2020/12/13 11:01:38;;;;;;;6.95;6.25;;;;;;;9.75;73.22;98503.44;6082525;23;21037;-83
2020/12/13 11:04:04;;;;;;;12.57;6.40;;;;;;;10.08;72.83;98497.50;6127485;23;20297;-83
2020/12/13 11:06:31;;;;;;;11.35;6.93;;;;;;;10.21;71.87;98501.81;6081473;23;20206;-83
2020/12/13 11:09:01;;;;;;;9.80;6.38;;;;;;;10.28;71.24;98499.56;6094966;23;20234;-85
2020/12/13 11:11:35;;;;;;;7.55;5.25;;;;;;;10.39;69.83;98484.34;6087121;23;20210;-87
2020/12/13 11:14:53;;;;;;;8.32;5.78;;;;;;;10.32;69.79;98487.59;6107531;23;20163;-87
2020/12/13 11:17:48;;;;;;;;;;;;;;;;;;;;;
2020/12/13 11:20:23;;;;;;;5.82;5.25;;;;;;;10.70;68.38;98486.44;6091835;23;20205;-87
2020/12/13 11:22:57;;;;;;;8.20;4.80;;;;;;;10.31;67.42;98496.63;6124938;23;20185;-86
2020/12/13 11:25:24;;;;;;;7.03;5.10;;;;;;;10.06;67.59;98492.22;6097916;23;20187;-86
2020/12/13 11:27:59;;;;;;;7.15;5.03;;;;;;;10.21;66.99;98492.94;6033012;23;20218;-87
2020/12/13 11:30:30;;;;;;;12.52;11.27;;;;;;;10.12;66.75;98491.78;6090078;23;20210;-86
2020/12/13 11:32:57;;;;;;;6.05;4.80;;;;;;;10.27;66.31;98496.00;6109371;23;20225;-84
2020/12/13 11:35:23;;;;;;;6.35;4.55;;;;;;;10.61;65.59;98495.16;6109688;23;20174;-85
2020/12/13 11:37:49;;;;;;;6.20;4.15;;;;;;;10.79;64.54;98493.78;6110554;23;20186;-86
2020/12/13 11:40:16;;;;;;;7.43;4.10;;;;;;;10.87;63.87;98501.28;6085155;23;20195;-83
2020/12/13 11:42:42;;;;;;;7.88;5.55;;;;;;;10.95;63.44;98502.41;6089180;23;20202;-84
2020/12/13 11:45:08;;;;;;;4.07;3.75;;;;;;;11.23;63.63;98493.06;6140957;23;20298;-84
2020/12/13 11:47:47;;;;;;;7.78;3.80;;;;;;;11.03;63.51;98497.28;6103844;23;20488;-83
2020/12/13 11:50:18;;;;;;;5.53;3.97;;;;;;;10.61;64.57;98505.94;6085113;23;20202;-84
2020/12/13 11:52:52;;;;;;;9.50;4.03;;;;;;;10.33;65.84;98500.91;6126957;23;20151;-83
2020/12/13 11:55:18;;;;;;;6.47;4.22;;;;;;;10.20;66.74;98507.31;6098733;23;20206;-84
2020/12/13 11:57:45;;;;;;;7.25;4.97;;;;;;;10.44;66.20;98502.78;6096965;23;20201;-85
2020/12/13 12:00:16;;;;;;;4.40;4.00;;;;;;;10.66;65.16;98510.97;6099892;23;20206;-85
2020/12/13 12:02:51;;;;;;;7.40;4.22;;;;;;;10.63;65.61;98506.69;6143536;23;20206;-85
2020/12/13 12:05:17;;;;;;;5.45;3.80;;;;;;;10.43;65.71;98510.03;6118068;23;20150;-85
2020/12/13 12:07:44;;;;;;;6.07;4.68;;;;;;;10.11;66.62;98502.63;6091963;23;20162;-85
2020/12/13 12:10:10;;;;;;;5.15;3.65;;;;;;;9.98;67.07;98512.50;6081966;23;20207;-84
2020/12/13 12:12:36;;;;;;;6.10;4.63;;;;;;;9.96;67.42;98499.19;6111544;23;20210;-89
2020/12/13 12:15:03;;;;;;;12.15;5.80;;;;;;;9.87;67.15;98502.56;6118962;23;20203;-90
2020/12/13 12:17:30;;;;;;;5.50;4.20;;;;;;;9.87;67.31;98507.94;6119530;23;20210;-90
2020/12/13 12:20:00;;;;;;;5.32;4.30;;;;;;;9.88;66.91;98503.41;6124537;23;20154;-91
2020/12/13 12:22:32;;;;;;;5.63;3.92;;;;;;;10.22;65.65;98497.31;6119597;23;20242;-87
2020/12/13 12:25:01;;;;;;;4.00;3.50;;;;;;;10.23;64.62;98504.41;6121657;23;20202;-85
2020/12/13 12:27:27;;;;;;;4.55;4.15;;;;;;;10.17;64.92;98500.34;6095701;23;20202;-84
2020/12/13 12:29:53;;;;;;;4.47;3.70;;;;;;;10.25;64.59;98495.25;6116681;23;20284;-85
2020/12/13 12:32:19;;;;;;;6.10;4.35;;;;;;;10.45;64.38;98493.75;6097700;23;20216;-85
2020/12/13 12:34:45;;;;;;;4.57;3.75;;;;;;;10.13;64.18;98492.59;6125248;23;20167;-85
2020/12/13 12:37:11;;;;;;;4.93;3.85;;;;;;;9.97;64.57;98498.22;6099332;23;20190;-85
2020/12/13 12:39:40;;;;;;;8.82;4.47;;;;;;;10.08;64.39;98489.44;6098435;23;20217;-86
2020/12/13 12:42:06;;;;;;;4.95;3.97;;;;;;;10.18;64.39;98490.44;6097224;23;20226;-86
2020/12/13 12:44:32;;;;;;;5.78;4.50;;;;;;;10.16;64.13;98497.78;6097735;23;20207;-85
2020/12/13 12:46:59;;;;;;;5.22;4.60;;;;;;;9.80;65.12;98503.97;6098151;23;20178;-85
2020/12/13 12:49:26;;;;;;;5.30;4.80;;;;;;;9.56;66.48;98494.13;6140433;23;20210;-87
2020/12/13 12:51:53;;;;;;;5.72;5.22;;;;;;;9.59;65.99;98491.22;6095412;23;20217;-86
2020/12/13 12:54:20;;;;;;;6.50;4.88;;;;;;;9.38;66.30;98488.25;6145287;23;20226;-86
2020/12/13 12:56:46;;;;;;;9.70;5.13;;;;;;;9.42;66.81;98505.84;6121137;23;20215;-84
2020/12/13 12:59:33;;;;;;;5.72;4.20;;;;;;;9.50;67.48;98498.09;6108623;23;20147;-86
2020/12/13 13:02:02;;;;;;;6.57;5.03;;;;;;;9.77;65.19;98504.19;6147541;23;20191;-87
2020/12/13 13:04:34;;;;;;;9.50;5.30;;;;;;;9.50;66.13;98497.28;6120412;23;20234;-84
2020/12/13 13:07:17;;;;;;;9.70;4.85;;;;;;;9.46;67.39;98512.69;6097117;23;20214;-85
2020/12/13 13:12:29;;;;;;;6.05;4.57;;;;;;;9.22;67.20;98503.72;6122053;23;20209;-86
2020/12/13 13:14:55;;;;;;;6.47;4.63;;;;;;;9.03;67.48;98510.47;6095758;23;20273;-85
2020/12/13 13:17:29;;;;;;;6.57;4.55;;;;;;;9.19;66.84;98514.66;6143100;23;20178;-86
2020/12/13 13:19:56;;;;;;;8.27;4.45;;;;;;;9.00;66.96;98508.84;6101469;23;20170;-87
2020/12/13 13:22:23;;;;;;;4.85;3.60;;;;;;;8.79;65.45;98501.41;6096345;23;20298;-86
2020/12/13 13:24:50;;;;;;;7.10;3.78;;;;;;;8.84;65.42;98504.63;6121682;23;20206;-85
2020/12/13 13:27:16;;;;;;;5.95;3.88;;;;;;;8.70;66.19;98504.72;6116125;23;20286;-86
2020/12/13 13:29:45;;;;;;;6.70;3.75;;;;;;;8.67;66.40;98507.63;6088881;23;20213;-85
2020/12/13 13:32:12;;;;;;;4.53;3.97;;;;;;;8.69;66.44;98513.75;6116088;23;20194;-85
2020/12/13 13:34:39;;;;;;;4.20;3.67;;;;;;;8.71;66.75;98511.81;6116387;23;20650;-85
2020/12/13 13:37:10;;;;;;;5.20;3.65;;;;;;;8.69;66.48;98519.09;6091755;23;20210;-86
2020/12/13 13:39:36;;;;;;;6.47;3.70;;;;;;;8.59;67.20;98523.34;6114801;23;20198;-87
2020/12/13 13:42:04;;;;;;;6.55;4.72;;;;;;;8.55;66.91;98513.81;6096038;23;20198;-86
2020/12/13 13:44:41;;;;;;;5.65;3.78;;;;;;;8.49;67.48;98512.38;6124166;23;20194;-86
2020/12/13 13:47:26;;;;;;;4.45;3.65;;;;;;;8.33;68.15;98524.22;6102965;23;20474;-86